Trang Download Tổng hợp



Tổng số tìm thấy chuỗi '(720p)': 36609 (36609) , thời gian tìm:

First | Prev | 720 721 722 723 724 [725] 726 727 728 729 730 ... 733 | Next | Last
STT Thời gian Kích thước Tên file
36201 2011-12-16 6.56 GB The.Butterfly.Effect.DC.2004.720p.BluRay.DTS.x264 DON.mkv
//The.Butterfly.Effect.DC.2004.720p.BluRay.DTS.x264-DON / Hiệu Ứng Cánh Bướm () |
36202 2011-12-06 51.76 MB Truong Ba Chi The.Promise.2005.720p.avi
36203 2011-12-05 135.02 KB The.Prestige.2006.720p.BluRay 700MB.srt
36204 2011-11-20 107.17 KB 17.Again.2009.720p.BluRay.srt
36205 2011-11-20 49.89 KB I.Saw.The.Devil.2010.720p.srt
36206 2011-11-20 131.04 KB Drag.Me.to.Hell.720p.BluRay.srt
36207 2011-11-18 4.37 GB The.Hangover.Part.II.2011.720p Felony Mr.Tom@HDVN.mkv
36208 2011-11-01 157.68 KB Men.In.Black.II.2002.720p.HDTV.DD5.1.x264 CtrlHD.srt
36209 2011-10-30 1.70 GB Conan Movie 15 HD 720p muxed.mkv
36210 2011-10-29 5.74 GB The.King s.Speech.2010.720p.BluRay.DD5.1.x264 EbP.mkv
/[hdvnbits.org] - 26827_ The.King_s.Speech.2010.720p.BluRay.DD5.1.x264-EbP/The.King_s.Speech.2010.720p.BluRay.DD5.1.x264-EbP.mkv / Nhà vua nói lắp (2010) |
36211 2011-10-28 600.00 MB Battle.Los.Angeles.2011.720p BLA Mr.Tom@VNGOO.COM.part09.rar
36212 2011-10-28 600.00 MB Battle.Los.Angeles.2011.720p BLA Mr.Tom@VNGOO.COM.part08.rar
36213 2011-10-22 200.04 KB Super.8.2011.BluRay.720p.srt
36214 2011-10-21 4.38 GB Temple.Grandin.2010.720p.HDTV.x264.DD2.0 yadong1985.mkv
/[hdvnbits.org] - 26658_ Temple.Grandin.2010.720p.HDTV.x264.DD2.0-yadong1985/Temple.Grandin.2010.720p.HDTV.x264.DD2.0-yadong1985 / Chuyện Của Cô Temple Grandin () |
36215 2011-10-20 243.60 KB Easy.A.2010.720p.BluRay.AC3.x264 UNiT3D.srt
36216 2011-10-18 2.82 GB Kiki's.Delivery.Service.1989.720p.HDTV.x264.mkv
/Kiki's Delivery Service 1989 720p HDTV x264/Kiki\'s.Delivery.Service.1989.720p.HDTV.x264.mkv / Cô Bé Phù Thủy Kiki (1989) | Phim Cô Bé Phù Thủy là bộ phim anime nổi tiếng của Nhật kể về Kiki – một cô bé phù thuỷ thực tập – đủ tuổi để rời
36217 2011-10-15 4.37 GB Children.Of.The.Corn.Genesis.2011.720p.BluRay.x264 UNTOUCHABLES.mkv
/[hdvnbits.org] - 26447_ Children.Of.The.Corn.Genesis.2011.720p.BluRay.x264-UNTOUCHABLES/Children.Of.The.Corn.Genesis.2011.720p.BluRay.x264-UNTOUCHABLES / Những Đứa Trẻ Của Corn () |
36218 2011-09-26 240.69 KB Transformers.Dark.Of.The.Moon.2011.720p.Bluray.x264 MHD.srt
36219 2011-09-15 114.17 KB Kurozu.zero.II.2009.720p.BluRay.DTS.x264 EbP.Vietnamese.srt
36220 2011-09-15 5.28 KB Hitch.2005.720p.BluRay.DTS.x264 RuDE.nfo
36221 2011-09-14 4.37 GB Finding Neverland (2004).720p BluRay DTS x264.mkv
/Finding Neverland (2004).720p BluRay DTS x264/Finding Neverland (2004).720p BluRay DTS x264 / Finding Neverland (2004) () |
36222 2011-09-14 90.05 KB Finding Neverland (2004).720p BluRay DTS x264.srt
/Finding Neverland (2004).720p BluRay DTS x264/Phụ Đề Việt / Finding Neverland (2004) () |
36223 2011-09-02 97.98 KB Garoojigi 2008 720p BluRay DTS x264 EbP Vie.srt
36224 2011-08-26 6.53 GB X Men.First.Class.2011.BluRay.720p.DTS.x264 CHD.mkv
36225 2011-08-16 1.63 GB [HD 720P] Doraemon 2011.mkv
36226 2011-08-12 1.46 GB Hulk vs. Thor (2009) 720p.BluRay.x264.mkv
/Hulk vs. Thor (2009) 720p.BluRay.x264/Hulk vs. Thor (2009) 720p.BluRay.x264.mkv / Người Khổng Lồ Xanh và Thần Sấm (2009) | Trong phim Người Khổng Lồ Xanh & Thor, Hulk bị Loki điều khiển để tấn công và phá hủy Asgard. Liệu trong phim này Thor và các
36227 2011-08-07 139.63 KB Ip.Man.2008.720p.BluRay.DTS.x264 CtrlHD.srt
36228 2011-07-29 282.36 KB Transformers 2007 720p BluRay DTS.x264.srt
36229 2011-07-28 6.54 GB A.Chinese.Ghost.Story.2011.BluRay.720p.DTS.2Audio.x264 CHD.mkv
36230 2011-07-23 151.85 KB 7sins the lovers guide 2011 720p.srt
36231 2011-07-19 213.29 KB Die.Hard.1988.720p.BluRay.x264 SiNNERS.srt
36232 2011-07-16 4.46 GB Rio.2011.720p.VIE.Bluray.DTS.x264 DON.mkv
36233 2011-07-15 12.99 KB underworld.extended.cut.2003.720p.bluray.x264 sinners.nfo
36234 2011-07-15 5.47 GB Conan.The.Barbarian.1982.720p.BluRay.X264 AMIABLE.mkv
36235 2011-07-14 72.83 KB Enter.the.Dragon.1973.BluRay.720p.x264.DTS WiKi.srt
36236 2011-07-14 51.44 KB Fist.Of.Fury.1972.BluRay.720p.x264.DTS WiKi.srt
36237 2011-07-13 72.00 KB Game.Of.Death.720p.HDTV.x264 PiGO.srt
36238 2011-07-09 141.72 KB Dewstwennizy.Samoubijzy.1999.x264.BDRip(720p) Kinozal.TV HD.srt
36239 2011-07-09 85.64 KB Hidden.2011.720p.Bluray.X264.PRESTiGE.hd blogspot.com.srt
36240 2011-07-06 72.38 KB X Men Origins Wolverine (2009) 720p Bluray.srt
/X-Men Collection 2000-_2009 720p-1080p.Bluray.x264.DTS/Phụ đề Việt / Nguồn Gốc Người Sói (2009) | Phim là phần trước của ba phần X-Men đã phát hành, kể về nhân vật siêu anh hùng Wolverine của Marvel Comics và 20 năm dữ dội trong quá khứ của anh. Đặc
36241 2011-07-02 3.51 GB House.of.Rising.sun.2011.BluRay.720p.DTS.x264 CHD.mkv
/House.of.Rising.sun.2011.BluRay.720p.DTS.x264-CHD/House.of.Rising.sun.2011.BluRay.720p.DTS.x264-CHD / Giành Lại Công Lý () |
36242 2011-06-27 8.75 GB Gone.with.the.Wind.1939.720p.BluRay.x264 EbP.mkv
/Gone.with.the.Wind.1939.720p.BluRay.x264-EbP/Gone.with.the.Wind.1939.720p.BluRay.x264-EbP.mkv / Cuốn Theo Chiều Gió (1939) | Cuốn theo chiều gió (Gone With the Wind) (1939) là bộ phim Mỹ, thuộc thể loại phim chính kịch-lãng mạn-sử thi, được phỏng theo
36243 2011-06-21 5.58 GB Garfield.A.Tail.of.Two.Kitties.2006.720p.BluRay.DTS.x264 CtrlHD.mkv
/Garfield.A.Tail.of.Two.Kitties.2006.720p.BluRay.DTS.x264-CtrlHD/Garfield.A.Tail.of.Two.Kitties.2006.720p.BluRay.DTS.x264-CtrlHD / Chú Mèo Siêu Quậy () |
36244 2011-06-21 1.80 GB Final Destination 3 [2006] [mHD 720p] [x264] [AC3] [TRiM].mkv
36245 2011-06-21 1.80 GB Final Destination 2 [2003] [mHD 720p] [x264] [AC3] [TRiM].mkv
36246 2011-06-21 72.39 KB Final Destination 2000 [mHD 720p] [x264] [AC3] [TRiM].srt
36247 2011-06-18 2.29 GB Solomon Kane 2009 [mHD 720p Bluray][x264 AC3].mkv
36248 2011-06-18 2.83 GB Pirates.Of.The.Caribbean.Dead.Mans.Chest.2006.720p.BluRay.mkv
36249 2011-06-18 155.18 KB Fast.and.Furious.5.2011.720p.TS TDP.srt
36250 2011-06-18 155.18 KB Fast.and.Furious.5.2011.720p.TS TDP.srt

First | Prev | 720 721 722 723 724 [725] 726 727 728 729 730 ... 733 | Next | Last

chat icon Hỗ trợ trực tuyến
Nhập nội dung trợ giúp: X